Terminal Aerodrome Forecast
Issued by NWS

Current Version | Previous Version | Text Only | Print | Product List | Glossary On
Versions: 1 2 3 4 5 6 7 8 9 10 11 12
000
FTUS44 KTSA 031100
TAFBVO
TAF
KBVO 031120Z 0312/0412 VRB03KT P6SM BKN250
     FM031500 19013G22KT P6SM SCT060 BKN250
     FM040100 18005KT P6SM BKN250=

USA.gov is the U.S. government's official web portal to all federal, state and local government web resources and services.